createdAt,value
2022-08-03T00:17:58.712Z,26.5
2022-08-03T00:28:01.343Z,26.5
2022-08-03T00:38:03.422Z,26.5
2022-08-03T01:08:10.084Z,26.4
2022-08-03T01:28:14.545Z,26.4
2022-08-03T01:38:16.856Z,26.4
2022-08-03T01:48:19.203Z,26.4
2022-08-03T01:58:21.629Z,26.4
2022-08-03T02:08:23.966Z,26.3
2022-08-03T02:18:26.262Z,26.3
2022-08-03T02:28:28.493Z,26.3
2022-08-03T02:48:32.781Z,26.3
2022-08-03T02:58:34.575Z,26.3
2022-08-03T03:08:36.408Z,26.3
2022-08-03T03:18:38.787Z,26.3
2022-08-03T03:28:41.210Z,26.2
2022-08-03T03:38:43.122Z,26.2
2022-08-03T04:28:53.728Z,26.2
2022-08-03T04:48:57.447Z,26.1
2022-08-03T04:58:59.885Z,26.1
2022-08-03T05:09:01.814Z,26.1
2022-08-03T05:19:03.619Z,26.1
2022-08-03T05:29:05.531Z,26.1
2022-08-03T05:39:08.041Z,26.1
2022-08-03T05:49:10.295Z,26.1
2022-08-03T05:59:36.846Z,26.2
2022-08-03T06:09:14.901Z,26.2
2022-08-03T06:19:16.818Z,26.2
2022-08-03T06:29:19.080Z,26.3
2022-08-03T06:39:23.332Z,26.3
2022-08-03T06:49:23.845Z,26.4
2022-08-03T07:00:07.104Z,26.5
2022-08-03T07:19:30.072Z,26.6
2022-08-03T07:29:33.881Z,26.7
2022-08-03T07:49:36.430Z,26.9
2022-08-03T07:59:57.014Z,26.9
2022-08-03T08:09:40.762Z,27
2022-08-03T08:19:43.779Z,27.1
2022-08-03T08:29:45.898Z,27.2
2022-08-03T08:39:47.863Z,27.2
2022-08-03T08:59:54.571Z,27.4
2022-08-03T09:10:04.829Z,27.5
2022-08-03T09:20:03.361Z,27.5
2022-08-03T09:29:58.518Z,27.6
2022-08-03T09:40:00.919Z,27.6
2022-08-03T09:50:02.916Z,27.7
2022-08-03T10:00:08.264Z,27.7
2022-08-03T10:10:28.641Z,27.7
2022-08-03T10:20:09.625Z,27.8
2022-08-03T10:30:11.404Z,27.8
2022-08-03T10:40:16.131Z,27.8
2022-08-03T10:50:15.272Z,27.8
2022-08-03T11:00:17.246Z,27.9
2022-08-03T11:10:19.348Z,27.9
2022-08-03T11:20:21.486Z,27.9
2022-08-03T11:30:25.874Z,27.9
2022-08-03T11:40:25.497Z,27.9
2022-08-03T11:50:27.345Z,27.9
2022-08-03T12:00:29.944Z,27.9
2022-08-03T12:10:32.619Z,27.9
2022-08-03T12:20:35.359Z,27.9
2022-08-03T12:30:36.869Z,27.9
2022-08-03T12:40:38.717Z,27.9
2022-08-03T13:00:43.498Z,27.9
2022-08-03T13:10:45.643Z,27.9
2022-08-03T13:40:52.216Z,27.8
2022-08-03T14:21:05.752Z,27.8
2022-08-03T14:31:04.492Z,27.8
2022-08-03T14:41:06.730Z,27.8
2022-08-03T15:21:16.380Z,27.8
2022-08-03T15:31:18.748Z,27.8
2022-08-03T15:41:20.508Z,27.8
2022-08-03T16:01:24.601Z,27.8
2022-08-03T16:31:30.934Z,27.8
2022-08-03T16:41:53.471Z,27.8
2022-08-03T16:51:40.231Z,27.8
2022-08-03T17:01:37.877Z,27.8
2022-08-03T17:31:48.626Z,27.8
2022-08-03T17:41:48.914Z,27.7
2022-08-03T18:12:14.639Z,27.7
2022-08-03T18:32:06.838Z,27.7
2022-08-03T18:42:07.077Z,27.7
2022-08-03T18:52:12.104Z,27.7
2022-08-03T19:02:12.076Z,27.7
2022-08-03T19:12:28.391Z,27.7
2022-08-03T19:22:16.504Z,27.7
2022-08-03T19:32:18.483Z,27.7
2022-08-03T19:42:23.028Z,27.7
2022-08-03T19:52:24.295Z,27.7
2022-08-03T20:02:25.894Z,27.7
2022-08-03T20:22:28.936Z,27.7
2022-08-03T20:32:31.214Z,27.7
2022-08-03T20:52:35.853Z,27.6
2022-08-03T21:12:39.940Z,27.6
2022-08-03T21:22:42.614Z,27.6
2022-08-03T21:32:44.821Z,27.6
2022-08-03T21:42:46.269Z,27.6
2022-08-03T21:52:47.979Z,27.6
2022-08-03T22:02:53.102Z,27.6
2022-08-03T22:12:52.624Z,27.6
2022-08-03T22:32:57.391Z,27.6
2022-08-03T22:42:59.088Z,27.6
2022-08-03T22:53:01.262Z,27.6
2022-08-03T23:13:05.643Z,27.6
2022-08-03T23:23:07.552Z,27.6
2022-08-03T23:33:10.206Z,27.5
2022-08-03T23:43:13.440Z,27.5
2022-08-03T23:53:14.381Z,27.5
